• Join FlightAware (Why Join?)
  • Login
  • US Flag 
11:22PM EDT


 

Airport Tracker/Info


-or-


 

Live Flight TrackerFlight Track Log ✈ ASQ5750 ✈ 30-Apr-2013 ✈ KCVG - KORD

Flight Track Log - Related Links

Times and Time Zones

All times are in EDT time to prevent confusion due to time zone crossing. See the ASQ5750 flight status page for this flight to view local times or setup timezone preferences in your user account.

Time Position Orientation Groundspeed Altitude Reporting Facility
EDT Latitude Longitude Course Direction KTS MPH feet Rate Location/Type
10:42AM 39.0333 -84.6667 313° West 187 215 1,500  Level Cincinnati TRACON
10:43AM 39.0167 -84.7000 237° Southwest 184 212 2,200 1,680 Climbing Cincinnati TRACON
10:44AM 39.0667 -84.7500 322° Northwest 268 308 4,100 2,280 Climbing Cincinnati TRACON
10:45AM 38.8833 -84.7131 270° West  Level FlightAware Approximate
10:45AM 39.1333 -84.7833 339° North 270 311 6,800  Level Cincinnati TRACON
10:46AM 38.9104 -84.7878 313° West  Level FlightAware Approximate
10:47AM 38.9569 -84.8529 313° West  Level FlightAware Approximate
10:47AM 39.2456 -84.8531 334° Northwest 284 327 10,000  Level Indianapolis Center
10:48AM 39.3339 -84.8972 339° North 320 368 11,100 1,560 Climbing Indianapolis Center
10:49AM 39.4264 -84.9447 338° Northwest 349 402 13,300 1,980 Climbing Indianapolis Center
10:50AM 39.5181 -84.9903 339° North 350 403 15,200 1,500 Climbing Indianapolis Center
10:51AM 39.6256 -85.0464 338° Northwest 352 405 16,400 1,020 Climbing Indianapolis Center
10:52AM 39.7242 -85.1017 337° Northwest 370 426 17,400 1,080 Climbing Indianapolis Center
10:53AM 39.8208 -85.1597 335° Northwest 376 433 18,700 1,020 Climbing Indianapolis Center
10:54AM 39.9131 -85.2303 330° Northwest 380 437 19,600 900 Climbing Indianapolis Center
10:55AM 40.0075 -85.3033 329° Northwest 387 445 20,600 900 Climbing Indianapolis Center
10:56AM 40.1053 -85.3767 330° Northwest 396 456 21,500 780 Climbing Indianapolis Center
10:56AM 40.1736 -85.4286 330° Northwest 402 463 22,000 240 Climbing Chicago Center
10:57AM 40.2692 -85.5031 329° Northwest 401 461 22,000  Level Chicago Center
10:59AM 40.3522 -85.5978 319° Northwest 401 461 22,000  Level Chicago Center
11:00AM 40.4242 -85.7092 310° West 400 460 22,000  Level Chicago Center
11:01AM 40.4972 -85.8208 311° West 401 461 22,000  Level Chicago Center
11:02AM 40.5683 -85.9308 310° West 396 456 22,000  Level Chicago Center
11:03AM 40.6406 -86.0425 310° West 400 460 22,000  Level Chicago Center
11:04AM 40.7261 -86.1772 310° West 398 458 22,000  Level Chicago Center
11:05AM 40.7975 -86.2883 310° West 397 457 22,000  Level Chicago Center
11:06AM 40.8694 -86.4017 310° West 400 460 22,000  Level Chicago Center
11:07AM 40.9394 -86.5133 310° West 396 456 22,000  Level Chicago Center
11:08AM 41.0119 -86.6275 310° West 402 463 22,000 -720 Level Chicago Center
11:09AM 41.0889 -86.7500 310° West 400 460 20,600 -1,740 Descending Chicago Center
11:10AM 41.1614 -86.8658 310° West 407 468 18,500 -1,980 Descending Chicago Center
11:11AM 41.2342 -86.9833 309° West 414 476 16,600 -2,460 Descending Chicago Center
11:12AM 41.3028 -87.0917 310° West 390 449 13,500 -2,280 Descending Chicago Center
11:13AM 41.3811 -87.2125 311° West 366 421 12,000 -1,200 Descending Chicago Center
11:14AM 41.4667 -87.3167 318° Northwest 368 423 11,000 -540 Descending Chicago TRACON
11:15AM 41.5333 -87.4000 317° Northwest 355 409 11,000  Level Chicago TRACON
11:16AM 41.6167 -87.4833 323° Northwest 356 410 11,000  Level Chicago TRACON
11:17AM 41.6833 -87.5667 317° Northwest 330 380 11,000  Level Chicago TRACON
11:18AM 41.7500 -87.6333 323° Northwest 296 341 11,000 -660 Level Chicago TRACON
11:19AM 41.8167 -87.7000 323° Northwest 293 337 9,700 -1,080 Descending Chicago TRACON
11:20AM 41.8667 -87.7833 309° West 275 316 8,900 -1,260 Descending Chicago TRACON
11:21AM 41.9000 -87.8667 298° West 272 313 7,200 -1,020 Descending Chicago TRACON
11:22AM 41.9167 -87.9500 285° West 274 315 7,000 -120 Descending Chicago TRACON
11:23AM 41.9667 -88.0167 315° West 247 284 7,000 -300 Level Chicago TRACON
11:24AM 42.0000 -88.0833 304° West 225 259 6,400 -960 Descending Chicago TRACON
11:25AM 42.0500 -88.1500 315° West 221 254 5,100 -1,320 Descending Chicago TRACON
11:25AM 42.0653 -88.1633 327° Northwest 224 258 4,600 -780 Descending Chicago Center
11:26AM 42.1161 -88.1361 22° Northeast 242 278 4,000 -480 Descending Chicago Center
11:27AM 42.1167 -88.0833 89° East 229 264 3,900 -180 Descending Chicago TRACON